Port Lincoln, Australia
Current Conditions -  °F | °C
As of 6:00 AM on Friday 24 Oct 2014 (Local Time) from YWHA Reporting Station
Clear Clear  
Wind Chill: 59°   Ceiling: Unl
Heat Index: 59°   Visibility: 6mi
Dew Point: 52°   Wind: 6mph
Humidity: 77%   Direction: 360°N
Pressure: 29.91"   Gusts: NA
Location:  34.72°S, 135.86°E
Report Text: YWHA 232000Z AUTO 36005KT 9999 // NCD 15/11 Q1013
Loading
Personal Weather Stations






























Interactive Weather Map
Tropical Storm Tracking
New forecast layout! Learn more

10-Day Weather Forecast

Advertisements
Track Severe Weather on mobile